sensor_id;sensor_type;location;lat;lon;timestamp;pressure;altitude;pressure_sealevel;temperature;humidity
9822;BME280;4950;46.042;14.472;2023-08-30T00:01:09;96907.94;;;18.66;86.77
9822;BME280;4950;46.042;14.472;2023-08-30T00:03:36;96903.00;;;18.70;86.14
9822;BME280;4950;46.042;14.472;2023-08-30T00:06:03;96907.75;;;18.73;85.88
9822;BME280;4950;46.042;14.472;2023-08-30T00:08:30;96909.56;;;18.72;86.11
9822;BME280;4950;46.042;14.472;2023-08-30T00:10:58;96910.63;;;18.71;86.34
9822;BME280;4950;46.042;14.472;2023-08-30T00:13:25;96911.66;;;18.70;86.28
9822;BME280;4950;46.042;14.472;2023-08-30T00:15:52;96911.91;;;18.69;86.04
9822;BME280;4950;46.042;14.472;2023-08-30T00:18:19;96912.38;;;18.61;86.26
9822;BME280;4950;46.042;14.472;2023-08-30T00:20:45;96912.66;;;18.64;86.26
9822;BME280;4950;46.042;14.472;2023-08-30T00:23:12;96917.09;;;18.59;86.33
9822;BME280;4950;46.042;14.472;2023-08-30T00:25:39;96914.22;;;18.60;86.06
9822;BME280;4950;46.042;14.472;2023-08-30T00:28:07;96921.63;;;18.63;85.62
9822;BME280;4950;46.042;14.472;2023-08-30T00:30:34;96919.53;;;18.65;85.01
9822;BME280;4950;46.042;14.472;2023-08-30T00:33:00;96916.53;;;18.57;85.09
9822;BME280;4950;46.042;14.472;2023-08-30T00:35:27;96920.25;;;18.61;85.23
9822;BME280;4950;46.042;14.472;2023-08-30T00:37:54;96918.38;;;18.56;84.82
9822;BME280;4950;46.042;14.472;2023-08-30T00:40:23;96914.38;;;18.48;84.82
9822;BME280;4950;46.042;14.472;2023-08-30T00:42:49;96914.59;;;18.47;85.14
9822;BME280;4950;46.042;14.472;2023-08-30T00:45:18;96918.03;;;18.47;84.93
9822;BME280;4950;46.042;14.472;2023-08-30T00:47:45;96922.50;;;18.47;85.40
9822;BME280;4950;46.042;14.472;2023-08-30T00:50:12;96925.63;;;18.44;85.42
9822;BME280;4950;46.042;14.472;2023-08-30T00:52:40;96921.66;;;18.41;85.61
9822;BME280;4950;46.042;14.472;2023-08-30T00:55:07;96931.84;;;18.38;85.32
9822;BME280;4950;46.042;14.472;2023-08-30T00:57:34;96925.56;;;18.39;85.92
9822;BME280;4950;46.042;14.472;2023-08-30T01:00:02;96921.72;;;18.46;85.94
9822;BME280;4950;46.042;14.472;2023-08-30T01:02:31;96927.66;;;18.37;85.89
9822;BME280;4950;46.042;14.472;2023-08-30T01:04:59;96933.94;;;18.35;86.01
9822;BME280;4950;46.042;14.472;2023-08-30T01:07:25;96933.69;;;18.37;85.93
9822;BME280;4950;46.042;14.472;2023-08-30T01:09:53;96933.22;;;18.40;85.79
9822;BME280;4950;46.042;14.472;2023-08-30T01:12:23;96928.50;;;18.42;86.36
9822;BME280;4950;46.042;14.472;2023-08-30T01:14:52;96926.91;;;18.41;86.07
9822;BME280;4950;46.042;14.472;2023-08-30T01:17:23;96926.72;;;18.48;86.50
9822;BME280;4950;46.042;14.472;2023-08-30T01:19:58;96932.22;;;18.46;86.14
9822;BME280;4950;46.042;14.472;2023-08-30T01:22:33;96937.94;;;18.38;86.71
9822;BME280;4950;46.042;14.472;2023-08-30T01:25:16;96931.63;;;18.39;86.78
9822;BME280;4950;46.042;14.472;2023-08-30T01:27:47;96932.72;;;18.43;86.34
9822;BME280;4950;46.042;14.472;2023-08-30T01:30:15;96929.13;;;18.49;86.33
9822;BME280;4950;46.042;14.472;2023-08-30T01:32:43;96924.88;;;18.48;86.07
9822;BME280;4950;46.042;14.472;2023-08-30T01:35:12;96925.44;;;18.50;86.22
9822;BME280;4950;46.042;14.472;2023-08-30T01:37:43;96931.75;;;18.49;85.93
9822;BME280;4950;46.042;14.472;2023-08-30T01:40:11;96930.13;;;18.48;85.77
9822;BME280;4950;46.042;14.472;2023-08-30T01:42:38;96934.06;;;18.46;86.55
9822;BME280;4950;46.042;14.472;2023-08-30T01:45:10;96929.13;;;18.49;86.28
9822;BME280;4950;46.042;14.472;2023-08-30T01:47:39;96928.53;;;18.47;86.02
9822;BME280;4950;46.042;14.472;2023-08-30T01:50:08;96932.44;;;18.40;86.36
9822;BME280;4950;46.042;14.472;2023-08-30T01:52:36;96928.69;;;18.35;86.51
9822;BME280;4950;46.042;14.472;2023-08-30T01:55:03;96936.84;;;18.34;86.26
9822;BME280;4950;46.042;14.472;2023-08-30T01:57:31;96940.25;;;18.34;86.26
9822;BME280;4950;46.042;14.472;2023-08-30T01:59:58;96938.41;;;18.35;86.49
9822;BME280;4950;46.042;14.472;2023-08-30T02:02:28;96944.44;;;18.35;86.74
9822;BME280;4950;46.042;14.472;2023-08-30T02:04:55;96944.19;;;18.32;86.93
9822;BME280;4950;46.042;14.472;2023-08-30T02:07:25;96940.50;;;18.33;86.49
9822;BME280;4950;46.042;14.472;2023-08-30T02:09:57;96937.25;;;18.26;86.19
9822;BME280;4950;46.042;14.472;2023-08-30T02:12:28;96936.44;;;18.20;86.31
9822;BME280;4950;46.042;14.472;2023-08-30T02:14:58;96941.94;;;18.19;86.29
9822;BME280;4950;46.042;14.472;2023-08-30T02:17:29;96942.41;;;18.15;86.45
9822;BME280;4950;46.042;14.472;2023-08-30T02:19:56;96942.97;;;18.18;87.01
9822;BME280;4950;46.042;14.472;2023-08-30T02:22:23;96950.06;;;18.17;87.28
9822;BME280;4950;46.042;14.472;2023-08-30T02:24:50;96955.25;;;18.12;87.08
9822;BME280;4950;46.042;14.472;2023-08-30T02:27:17;96947.63;;;18.10;86.70
9822;BME280;4950;46.042;14.472;2023-08-30T02:29:43;96954.44;;;18.11;86.57
9822;BME280;4950;46.042;14.472;2023-08-30T02:32:10;96949.09;;;18.01;86.83
9822;BME280;4950;46.042;14.472;2023-08-30T02:34:38;96953.03;;;18.04;87.74
9822;BME280;4950;46.042;14.472;2023-08-30T02:37:05;96947.75;;;17.99;87.84
9822;BME280;4950;46.042;14.472;2023-08-30T02:39:31;96950.66;;;18.02;88.35
9822;BME280;4950;46.042;14.472;2023-08-30T02:41:58;96954.97;;;18.08;88.48
9822;BME280;4950;46.042;14.472;2023-08-30T02:44:25;96948.16;;;18.12;88.48
9822;BME280;4950;46.042;14.472;2023-08-30T02:46:51;96953.47;;;18.18;88.37
9822;BME280;4950;46.042;14.472;2023-08-30T02:49:18;96950.84;;;18.18;88.30
9822;BME280;4950;46.042;14.472;2023-08-30T02:51:46;96947.66;;;18.15;87.88
9822;BME280;4950;46.042;14.472;2023-08-30T02:54:13;96952.69;;;18.17;87.48
9822;BME280;4950;46.042;14.472;2023-08-30T02:56:40;96947.06;;;18.08;87.99
9822;BME280;4950;46.042;14.472;2023-08-30T02:59:07;96958.41;;;18.14;87.92
9822;BME280;4950;46.042;14.472;2023-08-30T03:01:34;96951.75;;;18.06;87.68
9822;BME280;4950;46.042;14.472;2023-08-30T03:04:01;96952.06;;;18.10;87.89
9822;BME280;4950;46.042;14.472;2023-08-30T03:06:28;96948.72;;;18.14;87.78
9822;BME280;4950;46.042;14.472;2023-08-30T03:08:56;96951.34;;;18.14;87.24
9822;BME280;4950;46.042;14.472;2023-08-30T03:11:23;96948.44;;;18.16;87.23
9822;BME280;4950;46.042;14.472;2023-08-30T03:13:50;96954.81;;;18.20;87.16
9822;BME280;4950;46.042;14.472;2023-08-30T03:16:17;96954.31;;;18.23;87.05
9822;BME280;4950;46.042;14.472;2023-08-30T03:18:44;96956.94;;;18.23;87.01
9822;BME280;4950;46.042;14.472;2023-08-30T03:21:11;96956.63;;;18.20;86.68
9822;BME280;4950;46.042;14.472;2023-08-30T03:23:38;96958.38;;;18.09;86.85
9822;BME280;4950;46.042;14.472;2023-08-30T03:26:10;96957.28;;;18.05;86.91
9822;BME280;4950;46.042;14.472;2023-08-30T03:28:37;96960.38;;;18.02;86.62
9822;BME280;4950;46.042;14.472;2023-08-30T03:31:11;96961.56;;;17.89;86.84
9822;BME280;4950;46.042;14.472;2023-08-30T03:33:38;96962.91;;;17.74;87.59
9822;BME280;4950;46.042;14.472;2023-08-30T03:36:07;96964.91;;;17.67;88.34
9822;BME280;4950;46.042;14.472;2023-08-30T03:38:34;96966.69;;;17.62;88.44
9822;BME280;4950;46.042;14.472;2023-08-30T03:41:01;96967.69;;;17.61;89.18
9822;BME280;4950;46.042;14.472;2023-08-30T03:43:30;96966.84;;;17.55;89.62
9822;BME280;4950;46.042;14.472;2023-08-30T03:45:57;96972.41;;;17.42;89.71
9822;BME280;4950;46.042;14.472;2023-08-30T03:48:24;96971.00;;;17.34;89.49
9822;BME280;4950;46.042;14.472;2023-08-30T03:50:51;96966.56;;;17.17;88.58
9822;BME280;4950;46.042;14.472;2023-08-30T03:53:17;96975.84;;;17.08;88.65
9822;BME280;4950;46.042;14.472;2023-08-30T03:55:44;96976.81;;;17.02;89.37
9822;BME280;4950;46.042;14.472;2023-08-30T03:58:11;96980.78;;;17.05;89.65
9822;BME280;4950;46.042;14.472;2023-08-30T04:00:39;96981.66;;;17.10;88.65
9822;BME280;4950;46.042;14.472;2023-08-30T04:03:08;96984.44;;;17.04;88.38
9822;BME280;4950;46.042;14.472;2023-08-30T04:05:35;96981.94;;;16.97;88.45
9822;BME280;4950;46.042;14.472;2023-08-30T04:08:02;96983.22;;;16.94;88.62
9822;BME280;4950;46.042;14.472;2023-08-30T04:10:29;96980.53;;;16.89;89.16
9822;BME280;4950;46.042;14.472;2023-08-30T04:12:55;96980.28;;;16.91;89.71
9822;BME280;4950;46.042;14.472;2023-08-30T04:15:22;96984.50;;;16.92;89.78
9822;BME280;4950;46.042;14.472;2023-08-30T04:17:50;96981.56;;;16.88;89.78
9822;BME280;4950;46.042;14.472;2023-08-30T04:20:17;96984.41;;;16.87;90.38
9822;BME280;4950;46.042;14.472;2023-08-30T04:22:44;96983.47;;;16.93;90.80
9822;BME280;4950;46.042;14.472;2023-08-30T04:25:11;96984.50;;;16.92;90.49
9822;BME280;4950;46.042;14.472;2023-08-30T04:27:37;96976.41;;;16.93;90.40
9822;BME280;4950;46.042;14.472;2023-08-30T04:30:05;96982.53;;;16.99;90.70
9822;BME280;4950;46.042;14.472;2023-08-30T04:32:32;96979.66;;;17.01;89.68
9822;BME280;4950;46.042;14.472;2023-08-30T04:35:00;96978.47;;;16.91;89.45
9822;BME280;4950;46.042;14.472;2023-08-30T04:37:29;96984.66;;;16.85;89.75
9822;BME280;4950;46.042;14.472;2023-08-30T04:39:56;96987.75;;;16.82;89.25
9822;BME280;4950;46.042;14.472;2023-08-30T04:42:23;96989.09;;;16.85;89.02
9822;BME280;4950;46.042;14.472;2023-08-30T04:44:50;96985.22;;;16.87;88.66
9822;BME280;4950;46.042;14.472;2023-08-30T04:47:17;96984.91;;;16.84;88.38
9822;BME280;4950;46.042;14.472;2023-08-30T04:49:43;96988.75;;;16.81;88.67
9822;BME280;4950;46.042;14.472;2023-08-30T04:52:11;96987.28;;;16.73;88.63
9822;BME280;4950;46.042;14.472;2023-08-30T04:54:38;96990.97;;;16.72;89.07
9822;BME280;4950;46.042;14.472;2023-08-30T04:57:05;96987.69;;;16.65;89.49
9822;BME280;4950;46.042;14.472;2023-08-30T04:59:31;96986.78;;;16.59;90.95
9822;BME280;4950;46.042;14.472;2023-08-30T05:01:58;96988.41;;;16.61;91.59
9822;BME280;4950;46.042;14.472;2023-08-30T05:04:25;96985.53;;;16.62;91.76
9822;BME280;4950;46.042;14.472;2023-08-30T05:06:51;96984.44;;;16.58;92.30
9822;BME280;4950;46.042;14.472;2023-08-30T05:09:20;96991.47;;;16.57;92.04
9822;BME280;4950;46.042;14.472;2023-08-30T05:11:50;96991.03;;;16.61;92.92
9822;BME280;4950;46.042;14.472;2023-08-30T05:14:17;96996.25;;;16.61;92.04
9822;BME280;4950;46.042;14.472;2023-08-30T05:16:43;96993.63;;;16.61;91.89
9822;BME280;4950;46.042;14.472;2023-08-30T05:19:10;96994.09;;;16.57;92.85
9822;BME280;4950;46.042;14.472;2023-08-30T05:21:37;96993.34;;;16.45;93.42
9822;BME280;4950;46.042;14.472;2023-08-30T05:24:04;97000.75;;;16.48;93.48
9822;BME280;4950;46.042;14.472;2023-08-30T05:26:35;97006.06;;;16.53;92.63
9822;BME280;4950;46.042;14.472;2023-08-30T05:29:03;96994.47;;;16.49;92.69
9822;BME280;4950;46.042;14.472;2023-08-30T05:31:30;96998.38;;;16.47;93.18
9822;BME280;4950;46.042;14.472;2023-08-30T05:33:57;97000.75;;;16.48;93.55
9822;BME280;4950;46.042;14.472;2023-08-30T05:36:23;96998.47;;;16.40;94.06
9822;BME280;4950;46.042;14.472;2023-08-30T05:38:50;97002.47;;;16.43;94.18
9822;BME280;4950;46.042;14.472;2023-08-30T05:41:17;97002.00;;;16.46;93.69
9822;BME280;4950;46.042;14.472;2023-08-30T05:43:45;96997.66;;;16.51;93.06
9822;BME280;4950;46.042;14.472;2023-08-30T05:46:12;97006.00;;;16.48;93.35
9822;BME280;4950;46.042;14.472;2023-08-30T05:48:40;97002.78;;;16.58;92.66
9822;BME280;4950;46.042;14.472;2023-08-30T05:51:07;97011.75;;;16.62;91.83
9822;BME280;4950;46.042;14.472;2023-08-30T05:53:34;97006.13;;;16.70;92.32
9822;BME280;4950;46.042;14.472;2023-08-30T05:56:00;97014.28;;;16.57;92.15
9822;BME280;4950;46.042;14.472;2023-08-30T05:58:28;97019.28;;;16.58;92.75
9822;BME280;4950;46.042;14.472;2023-08-30T06:00:56;97014.16;;;16.52;92.91
9822;BME280;4950;46.042;14.472;2023-08-30T06:03:24;97015.59;;;16.43;93.35
9822;BME280;4950;46.042;14.472;2023-08-30T06:05:52;97020.13;;;16.47;93.51
9822;BME280;4950;46.042;14.472;2023-08-30T06:08:19;97022.97;;;16.46;92.59
9822;BME280;4950;46.042;14.472;2023-08-30T06:10:46;97025.91;;;16.49;93.33
9822;BME280;4950;46.042;14.472;2023-08-30T06:13:13;97028.69;;;16.43;93.91
9822;BME280;4950;46.042;14.472;2023-08-30T06:15:39;97027.41;;;16.45;93.22
9822;BME280;4950;46.042;14.472;2023-08-30T06:18:08;97034.59;;;16.38;92.15
9822;BME280;4950;46.042;14.472;2023-08-30T06:20:34;97039.75;;;16.33;91.90
9822;BME280;4950;46.042;14.472;2023-08-30T06:23:03;97041.66;;;16.37;92.98
9822;BME280;4950;46.042;14.472;2023-08-30T06:25:29;97041.81;;;16.31;93.03
9822;BME280;4950;46.042;14.472;2023-08-30T06:27:58;97047.88;;;16.19;93.54
9822;BME280;4950;46.042;14.472;2023-08-30T06:30:26;97046.94;;;16.26;94.10
9822;BME280;4950;46.042;14.472;2023-08-30T06:32:55;97053.31;;;16.30;93.66
9822;BME280;4950;46.042;14.472;2023-08-30T06:35:23;97049.75;;;16.36;92.54
9822;BME280;4950;46.042;14.472;2023-08-30T06:37:50;97055.00;;;16.36;92.21
9822;BME280;4950;46.042;14.472;2023-08-30T06:40:17;97058.44;;;16.13;94.01
9822;BME280;4950;46.042;14.472;2023-08-30T06:42:44;97057.78;;;16.17;94.49
9822;BME280;4950;46.042;14.472;2023-08-30T06:45:11;97064.84;;;16.17;94.70
9822;BME280;4950;46.042;14.472;2023-08-30T06:47:37;97055.59;;;16.14;94.98
9822;BME280;4950;46.042;14.472;2023-08-30T06:50:05;97064.50;;;16.13;94.36
9822;BME280;4950;46.042;14.472;2023-08-30T06:52:36;97063.38;;;16.09;95.39
9822;BME280;4950;46.042;14.472;2023-08-30T06:55:03;97061.41;;;16.16;95.46
9822;BME280;4950;46.042;14.472;2023-08-30T06:57:30;97069.38;;;16.22;94.43
9822;BME280;4950;46.042;14.472;2023-08-30T06:59:57;97069.50;;;16.27;93.68
9822;BME280;4950;46.042;14.472;2023-08-30T07:02:25;97068.69;;;16.26;94.39
9822;BME280;4950;46.042;14.472;2023-08-30T07:04:53;97066.88;;;16.27;94.86
9822;BME280;4950;46.042;14.472;2023-08-30T07:07:19;97070.06;;;16.29;95.05
9822;BME280;4950;46.042;14.472;2023-08-30T07:09:47;97075.94;;;16.36;94.96
9822;BME280;4950;46.042;14.472;2023-08-30T07:12:14;97075.03;;;16.42;93.12
9822;BME280;4950;46.042;14.472;2023-08-30T07:14:41;97074.91;;;16.49;92.14
9822;BME280;4950;46.042;14.472;2023-08-30T07:17:08;97080.94;;;16.49;92.72
9822;BME280;4950;46.042;14.472;2023-08-30T07:19:35;97080.72;;;16.51;92.40
9822;BME280;4950;46.042;14.472;2023-08-30T07:22:02;97078.66;;;16.53;92.84
9822;BME280;4950;46.042;14.472;2023-08-30T07:24:29;97086.72;;;16.63;93.26
9822;BME280;4950;46.042;14.472;2023-08-30T07:26:57;97084.66;;;16.65;91.34
9822;BME280;4950;46.042;14.472;2023-08-30T07:29:24;97083.53;;;16.61;91.78
9822;BME280;4950;46.042;14.472;2023-08-30T07:31:51;97080.34;;;16.59;92.27
9822;BME280;4950;46.042;14.472;2023-08-30T07:34:18;97084.00;;;16.46;91.68
9822;BME280;4950;46.042;14.472;2023-08-30T07:36:45;97082.09;;;16.42;92.27
9822;BME280;4950;46.042;14.472;2023-08-30T07:39:12;97090.63;;;16.49;92.87
9822;BME280;4950;46.042;14.472;2023-08-30T07:41:39;97094.84;;;16.38;91.63
9822;BME280;4950;46.042;14.472;2023-08-30T07:44:10;97096.13;;;16.35;93.23
9822;BME280;4950;46.042;14.472;2023-08-30T07:46:37;97095.06;;;16.36;92.21
9822;BME280;4950;46.042;14.472;2023-08-30T07:49:04;97094.19;;;16.31;92.86
9822;BME280;4950;46.042;14.472;2023-08-30T07:51:30;97092.94;;;16.33;92.73
9822;BME280;4950;46.042;14.472;2023-08-30T07:53:57;97096.91;;;16.36;93.82
9822;BME280;4950;46.042;14.472;2023-08-30T07:56:24;97093.63;;;16.41;94.09
9822;BME280;4950;46.042;14.472;2023-08-30T07:58:51;97103.53;;;16.38;94.57
9822;BME280;4950;46.042;14.472;2023-08-30T08:01:19;97105.78;;;16.47;94.53
9822;BME280;4950;46.042;14.472;2023-08-30T08:03:46;97107.94;;;16.50;93.39
9822;BME280;4950;46.042;14.472;2023-08-30T08:06:13;97112.81;;;16.46;93.53
9822;BME280;4950;46.042;14.472;2023-08-30T08:08:39;97114.88;;;16.44;93.81
9822;BME280;4950;46.042;14.472;2023-08-30T08:11:06;97125.47;;;16.49;92.94
9822;BME280;4950;46.042;14.472;2023-08-30T08:13:33;97117.25;;;16.57;93.42
9822;BME280;4950;46.042;14.472;2023-08-30T08:15:59;97119.50;;;16.66;92.83
9822;BME280;4950;46.042;14.472;2023-08-30T08:18:28;97118.84;;;16.70;92.51
9822;BME280;4950;46.042;14.472;2023-08-30T08:20:54;97121.81;;;16.62;91.93
9822;BME280;4950;46.042;14.472;2023-08-30T08:23:21;97129.91;;;16.61;92.29
9822;BME280;4950;46.042;14.472;2023-08-30T08:25:48;97121.25;;;16.60;93.22
9822;BME280;4950;46.042;14.472;2023-08-30T08:28:14;97120.44;;;16.59;92.37
9822;BME280;4950;46.042;14.472;2023-08-30T08:30:42;97122.28;;;16.59;93.61
9822;BME280;4950;46.042;14.472;2023-08-30T08:33:10;97124.91;;;16.47;93.50
9822;BME280;4950;46.042;14.472;2023-08-30T08:35:38;97130.28;;;16.41;94.30
9822;BME280;4950;46.042;14.472;2023-08-30T08:38:05;97133.56;;;16.36;94.18
9822;BME280;4950;46.042;14.472;2023-08-30T08:40:32;97134.06;;;16.33;94.50
9822;BME280;4950;46.042;14.472;2023-08-30T08:42:58;97130.38;;;16.34;94.77
9822;BME280;4950;46.042;14.472;2023-08-30T08:45:25;97129.94;;;16.37;94.49
9822;BME280;4950;46.042;14.472;2023-08-30T08:47:52;97127.97;;;16.44;94.67
9822;BME280;4950;46.042;14.472;2023-08-30T08:50:20;97126.94;;;16.57;94.64
9822;BME280;4950;46.042;14.472;2023-08-30T08:52:48;97125.59;;;16.54;94.07
9822;BME280;4950;46.042;14.472;2023-08-30T08:55:17;97126.38;;;16.55;93.76
9822;BME280;4950;46.042;14.472;2023-08-30T08:57:44;97136.41;;;16.58;94.25
9822;BME280;4950;46.042;14.472;2023-08-30T09:00:12;97130.91;;;16.59;94.57
9822;BME280;4950;46.042;14.472;2023-08-30T09:02:40;97126.84;;;16.52;94.55
9822;BME280;4950;46.042;14.472;2023-08-30T09:05:08;97128.88;;;16.50;94.19
9822;BME280;4950;46.042;14.472;2023-08-30T09:07:35;97126.84;;;16.52;94.34
9822;BME280;4950;46.042;14.472;2023-08-30T09:10:05;97132.31;;;16.50;94.08
9822;BME280;4950;46.042;14.472;2023-08-30T09:12:32;97128.88;;;16.50;94.66
9822;BME280;4950;46.042;14.472;2023-08-30T09:15:01;97127.88;;;16.51;94.95
9822;BME280;4950;46.042;14.472;2023-08-30T09:17:36;97138.59;;;16.49;94.74
9822;BME280;4950;46.042;14.472;2023-08-30T09:20:07;97130.94;;;16.48;95.14
9822;BME280;4950;46.042;14.472;2023-08-30T09:22:41;97137.66;;;16.55;94.90
9822;BME280;4950;46.042;14.472;2023-08-30T09:25:11;97140.63;;;16.59;93.65
9822;BME280;4950;46.042;14.472;2023-08-30T09:27:38;97137.44;;;16.57;94.05
9822;BME280;4950;46.042;14.472;2023-08-30T09:30:08;97140.03;;;16.57;94.42
9822;BME280;4950;46.042;14.472;2023-08-30T09:32:40;97141.19;;;16.61;95.53
9822;BME280;4950;46.042;14.472;2023-08-30T09:35:08;97145.16;;;16.64;95.23
9822;BME280;4950;46.042;14.472;2023-08-30T09:37:35;97147.09;;;16.68;93.82
9822;BME280;4950;46.042;14.472;2023-08-30T09:40:01;97151.66;;;16.61;93.71
9822;BME280;4950;46.042;14.472;2023-08-30T09:42:29;97154.50;;;16.59;93.90
9822;BME280;4950;46.042;14.472;2023-08-30T09:44:57;97160.09;;;16.63;94.20
9822;BME280;4950;46.042;14.472;2023-08-30T09:47:24;97153.16;;;16.57;93.46
9822;BME280;4950;46.042;14.472;2023-08-30T09:49:54;97154.31;;;16.49;94.39
9822;BME280;4950;46.042;14.472;2023-08-30T09:52:24;97162.13;;;16.61;93.18
9822;BME280;4950;46.042;14.472;2023-08-30T09:54:51;97158.84;;;16.42;93.57
9822;BME280;4950;46.042;14.472;2023-08-30T09:57:18;97160.56;;;16.36;93.79
9822;BME280;4950;46.042;14.472;2023-08-30T09:59:48;97159.19;;;16.46;94.05
9822;BME280;4950;46.042;14.472;2023-08-30T10:02:15;97161.25;;;16.44;93.80
9822;BME280;4950;46.042;14.472;2023-08-30T10:04:44;97156.50;;;16.41;94.43
9822;BME280;4950;46.042;14.472;2023-08-30T10:07:12;97159.56;;;16.37;94.52
9822;BME280;4950;46.042;14.472;2023-08-30T10:09:40;97161.47;;;16.42;94.58
9822;BME280;4950;46.042;14.472;2023-08-30T10:12:08;97164.09;;;16.42;94.05
9822;BME280;4950;46.042;14.472;2023-08-30T10:14:36;97170.59;;;16.39;94.95
9822;BME280;4950;46.042;14.472;2023-08-30T10:17:05;97166.28;;;16.33;95.74
9822;BME280;4950;46.042;14.472;2023-08-30T10:19:36;97168.19;;;16.38;96.47
9822;BME280;4950;46.042;14.472;2023-08-30T10:22:05;97168.19;;;16.38;96.03
9822;BME280;4950;46.042;14.472;2023-08-30T10:24:38;97163.78;;;16.38;95.69
9822;BME280;4950;46.042;14.472;2023-08-30T10:27:06;97167.84;;;16.46;96.32
9822;BME280;4950;46.042;14.472;2023-08-30T10:29:34;97168.88;;;16.45;94.91
9822;BME280;4950;46.042;14.472;2023-08-30T10:32:03;97163.66;;;16.45;94.56
9822;BME280;4950;46.042;14.472;2023-08-30T10:34:33;97163.50;;;16.52;94.63
9822;BME280;4950;46.042;14.472;2023-08-30T10:37:10;97168.44;;;16.60;94.88
9822;BME280;4950;46.042;14.472;2023-08-30T10:39:38;97168.50;;;16.77;95.67
9822;BME280;4950;46.042;14.472;2023-08-30T10:42:09;97166.44;;;16.79;93.70
9822;BME280;4950;46.042;14.472;2023-08-30T10:44:47;97167.59;;;16.71;92.96
9822;BME280;4950;46.042;14.472;2023-08-30T10:47:22;97170.47;;;16.70;92.93
9822;BME280;4950;46.042;14.472;2023-08-30T10:49:50;97173.50;;;16.78;91.70
9822;BME280;4950;46.042;14.472;2023-08-30T10:52:19;97178.06;;;16.71;92.72
9822;BME280;4950;46.042;14.472;2023-08-30T10:54:46;97182.41;;;16.66;93.39
9822;BME280;4950;46.042;14.472;2023-08-30T10:57:14;97179.00;;;16.65;94.49
9822;BME280;4950;46.042;14.472;2023-08-30T11:00:04;97176.16;;;16.67;94.45
9822;BME280;4950;46.042;14.472;2023-08-30T11:02:32;97170.13;;;16.66;95.03
9822;BME280;4950;46.042;14.472;2023-08-30T11:05:01;97165.22;;;16.70;95.42
9822;BME280;4950;46.042;14.472;2023-08-30T11:07:29;97155.38;;;16.77;95.52
9822;BME280;4950;46.042;14.472;2023-08-30T11:09:56;97155.94;;;16.91;95.18
9822;BME280;4950;46.042;14.472;2023-08-30T11:12:22;97160.75;;;16.94;94.96
9822;BME280;4950;46.042;14.472;2023-08-30T11:14:51;97164.25;;;17.00;95.05
9822;BME280;4950;46.042;14.472;2023-08-30T11:17:18;97159.09;;;17.05;95.08
9822;BME280;4950;46.042;14.472;2023-08-30T11:19:45;97166.28;;;17.09;95.06
9822;BME280;4950;46.042;14.472;2023-08-30T11:22:14;97167.19;;;17.15;95.34
9822;BME280;4950;46.042;14.472;2023-08-30T11:24:42;97159.88;;;17.17;95.18
9822;BME280;4950;46.042;14.472;2023-08-30T11:27:09;97167.75;;;17.17;95.00
9822;BME280;4950;46.042;14.472;2023-08-30T11:29:36;97161.53;;;17.23;94.93
9822;BME280;4950;46.042;14.472;2023-08-30T11:32:07;97160.59;;;17.29;94.45
9822;BME280;4950;46.042;14.472;2023-08-30T11:34:34;97155.69;;;17.33;94.11
9822;BME280;4950;46.042;14.472;2023-08-30T11:37:00;97150.78;;;17.36;94.34
9822;BME280;4950;46.042;14.472;2023-08-30T11:39:29;97153.47;;;17.42;94.97
9822;BME280;4950;46.042;14.472;2023-08-30T11:41:56;97146.72;;;17.46;95.12
9822;BME280;4950;46.042;14.472;2023-08-30T11:44:23;97150.00;;;17.53;94.64
9822;BME280;4950;46.042;14.472;2023-08-30T11:46:57;97155.81;;;17.55;93.71
9822;BME280;4950;46.042;14.472;2023-08-30T11:49:24;97149.59;;;17.61;93.69
9822;BME280;4950;46.042;14.472;2023-08-30T11:51:51;97147.84;;;17.67;92.68
9822;BME280;4950;46.042;14.472;2023-08-30T11:54:19;97148.66;;;17.67;92.75
9822;BME280;4950;46.042;14.472;2023-08-30T11:56:47;97146.13;;;17.72;92.86
9822;BME280;4950;46.042;14.472;2023-08-30T11:59:18;97156.72;;;17.77;92.34
9822;BME280;4950;46.042;14.472;2023-08-30T12:01:46;97150.56;;;17.72;91.16
9822;BME280;4950;46.042;14.472;2023-08-30T12:04:12;97150.91;;;17.75;90.65
9822;BME280;4950;46.042;14.472;2023-08-30T12:06:39;97148.84;;;17.77;90.49
9822;BME280;4950;46.042;14.472;2023-08-30T12:09:11;97151.31;;;17.84;90.86
9822;BME280;4950;46.042;14.472;2023-08-30T12:11:40;97153.16;;;17.84;91.03
9822;BME280;4950;46.042;14.472;2023-08-30T12:14:08;97153.16;;;17.84;91.30
9822;BME280;4950;46.042;14.472;2023-08-30T12:16:34;97160.53;;;17.87;90.37
9822;BME280;4950;46.042;14.472;2023-08-30T12:19:08;97157.69;;;17.88;89.81
9822;BME280;4950;46.042;14.472;2023-08-30T12:21:39;97156.16;;;17.92;89.52
9822;BME280;4950;46.042;14.472;2023-08-30T12:24:07;97158.56;;;17.94;89.32
9822;BME280;4950;46.042;14.472;2023-08-30T12:26:34;97158.56;;;17.94;88.65
9822;BME280;4950;46.042;14.472;2023-08-30T12:29:02;97162.38;;;17.86;89.37
9822;BME280;4950;46.042;14.472;2023-08-30T12:31:31;97157.44;;;17.90;89.47
9822;BME280;4950;46.042;14.472;2023-08-30T12:33:57;97154.03;;;17.89;88.91
9822;BME280;4950;46.042;14.472;2023-08-30T12:36:24;97146.53;;;17.81;88.96
9822;BME280;4950;46.042;14.472;2023-08-30T12:38:51;97147.09;;;17.83;88.84
9822;BME280;4950;46.042;14.472;2023-08-30T12:41:18;97141.84;;;17.83;89.05
9822;BME280;4950;46.042;14.472;2023-08-30T12:43:47;97141.13;;;17.88;89.04
9822;BME280;4950;46.042;14.472;2023-08-30T12:46:13;97144.88;;;17.92;89.50
9822;BME280;4950;46.042;14.472;2023-08-30T12:48:41;97130.22;;;17.96;89.10
9822;BME280;4950;46.042;14.472;2023-08-30T12:51:08;97138.97;;;18.02;89.16
9822;BME280;4950;46.042;14.472;2023-08-30T12:53:35;97144.56;;;18.05;89.61
9822;BME280;4950;46.042;14.472;2023-08-30T12:56:01;97147.50;;;18.09;89.32
9822;BME280;4950;46.042;14.472;2023-08-30T12:58:29;97146.44;;;18.10;89.64
9822;BME280;4950;46.042;14.472;2023-08-30T13:00:56;97144.63;;;18.10;89.39
9822;BME280;4950;46.042;14.472;2023-08-30T13:03:23;97145.97;;;18.13;89.49
9822;BME280;4950;46.042;14.472;2023-08-30T13:05:51;97143.59;;;18.11;89.67
9822;BME280;4950;46.042;14.472;2023-08-30T13:08:18;97143.13;;;18.14;89.54
9822;BME280;4950;46.042;14.472;2023-08-30T13:10:45;97142.84;;;18.16;89.50
9822;BME280;4950;46.042;14.472;2023-08-30T13:13:11;97140.00;;;18.18;89.86